sensor_id;sensor_type;location;lat;lon;timestamp;temperature;humidity
1958;DHT22;979;51.076;13.748;2023-06-14T00:00:04;16.40;58.50
1958;DHT22;979;51.076;13.748;2023-06-14T00:02:33;16.30;58.40
1958;DHT22;979;51.076;13.748;2023-06-14T00:05:01;16.30;58.70
1958;DHT22;979;51.076;13.748;2023-06-14T00:07:36;16.20;58.70
1958;DHT22;979;51.076;13.748;2023-06-14T00:10:06;16.20;58.80
1958;DHT22;979;51.076;13.748;2023-06-14T00:12:38;16.10;58.90
1958;DHT22;979;51.076;13.748;2023-06-14T00:15:08;16.10;59.10
1958;DHT22;979;51.076;13.748;2023-06-14T00:17:37;16.00;59.10
1958;DHT22;979;51.076;13.748;2023-06-14T00:20:10;16.00;59.30
1958;DHT22;979;51.076;13.748;2023-06-14T00:22:38;16.00;59.30
1958;DHT22;979;51.076;13.748;2023-06-14T00:25:07;15.90;59.50
1958;DHT22;979;51.076;13.748;2023-06-14T00:27:56;15.90;59.60
1958;DHT22;979;51.076;13.748;2023-06-14T00:30:25;15.90;59.70
1958;DHT22;979;51.076;13.748;2023-06-14T00:32:57;15.80;59.70
1958;DHT22;979;51.076;13.748;2023-06-14T00:35:26;15.80;59.80
1958;DHT22;979;51.076;13.748;2023-06-14T00:37:54;15.70;59.80
1958;DHT22;979;51.076;13.748;2023-06-14T00:40:22;15.60;59.70
1958;DHT22;979;51.076;13.748;2023-06-14T00:42:51;15.60;59.90
1958;DHT22;979;51.076;13.748;2023-06-14T00:45:20;15.60;60.00
1958;DHT22;979;51.076;13.748;2023-06-14T00:47:51;15.60;60.30
1958;DHT22;979;51.076;13.748;2023-06-14T00:50:22;15.50;60.10
1958;DHT22;979;51.076;13.748;2023-06-14T00:52:51;15.40;60.20
1958;DHT22;979;51.076;13.748;2023-06-14T00:55:19;15.40;60.50
1958;DHT22;979;51.076;13.748;2023-06-14T00:57:48;15.40;60.50
1958;DHT22;979;51.076;13.748;2023-06-14T01:00:20;15.30;60.50
1958;DHT22;979;51.076;13.748;2023-06-14T01:02:49;15.30;60.70
1958;DHT22;979;51.076;13.748;2023-06-14T01:05:17;15.20;60.70
1958;DHT22;979;51.076;13.748;2023-06-14T01:08:01;15.20;60.70
1958;DHT22;979;51.076;13.748;2023-06-14T01:10:41;15.20;61.10
1958;DHT22;979;51.076;13.748;2023-06-14T01:13:19;15.10;60.80
1958;DHT22;979;51.076;13.748;2023-06-14T01:15:50;15.10;61.00
1958;DHT22;979;51.076;13.748;2023-06-14T01:18:21;15.00;61.10
1958;DHT22;979;51.076;13.748;2023-06-14T01:20:53;15.00;61.40
1958;DHT22;979;51.076;13.748;2023-06-14T01:23:25;15.00;61.40
1958;DHT22;979;51.076;13.748;2023-06-14T01:26:01;14.90;61.60
1958;DHT22;979;51.076;13.748;2023-06-14T01:28:31;14.90;61.60
1958;DHT22;979;51.076;13.748;2023-06-14T01:31:02;14.90;61.80
1958;DHT22;979;51.076;13.748;2023-06-14T01:33:33;14.80;61.70
1958;DHT22;979;51.076;13.748;2023-06-14T01:36:05;14.80;61.90
1958;DHT22;979;51.076;13.748;2023-06-14T01:38:36;14.80;63.00
1958;DHT22;979;51.076;13.748;2023-06-14T01:41:06;14.80;62.10
1958;DHT22;979;51.076;13.748;2023-06-14T01:43:34;14.80;61.80
1958;DHT22;979;51.076;13.748;2023-06-14T01:46:05;14.70;61.60
1958;DHT22;979;51.076;13.748;2023-06-14T01:48:34;14.70;61.70
1958;DHT22;979;51.076;13.748;2023-06-14T01:51:03;14.70;62.00
1958;DHT22;979;51.076;13.748;2023-06-14T01:53:31;14.60;62.40
1958;DHT22;979;51.076;13.748;2023-06-14T01:56:01;14.50;62.40
1958;DHT22;979;51.076;13.748;2023-06-14T01:58:31;14.50;62.60
1958;DHT22;979;51.076;13.748;2023-06-14T02:01:00;14.50;62.90
1958;DHT22;979;51.076;13.748;2023-06-14T02:03:29;14.50;63.00
1958;DHT22;979;51.076;13.748;2023-06-14T02:05:58;14.50;63.20
1958;DHT22;979;51.076;13.748;2023-06-14T02:08:26;14.50;63.30
1958;DHT22;979;51.076;13.748;2023-06-14T02:10:55;14.50;63.40
1958;DHT22;979;51.076;13.748;2023-06-14T02:13:25;14.50;63.60
1958;DHT22;979;51.076;13.748;2023-06-14T02:15:55;14.50;63.60
1958;DHT22;979;51.076;13.748;2023-06-14T02:18:24;14.40;63.50
1958;DHT22;979;51.076;13.748;2023-06-14T02:20:55;14.40;63.60
1958;DHT22;979;51.076;13.748;2023-06-14T02:23:24;14.40;63.70
1958;DHT22;979;51.076;13.748;2023-06-14T02:25:52;14.30;63.80
1958;DHT22;979;51.076;13.748;2023-06-14T02:28:20;14.30;63.90
1958;DHT22;979;51.076;13.748;2023-06-14T02:30:50;14.30;64.70
1958;DHT22;979;51.076;13.748;2023-06-14T02:33:22;14.30;64.10
1958;DHT22;979;51.076;13.748;2023-06-14T02:35:52;14.30;64.30
1958;DHT22;979;51.076;13.748;2023-06-14T02:38:20;14.20;64.20
1958;DHT22;979;51.076;13.748;2023-06-14T02:40:49;14.20;64.20
1958;DHT22;979;51.076;13.748;2023-06-14T02:43:17;14.20;64.20
1958;DHT22;979;51.076;13.748;2023-06-14T02:45:45;14.10;64.30
1958;DHT22;979;51.076;13.748;2023-06-14T02:48:17;14.00;64.40
1958;DHT22;979;51.076;13.748;2023-06-14T02:50:45;14.00;64.50
1958;DHT22;979;51.076;13.748;2023-06-14T02:53:13;14.00;64.80
1958;DHT22;979;51.076;13.748;2023-06-14T02:55:42;13.90;64.70
1958;DHT22;979;51.076;13.748;2023-06-14T02:58:13;13.90;64.80
1958;DHT22;979;51.076;13.748;2023-06-14T03:00:43;13.90;64.80
1958;DHT22;979;51.076;13.748;2023-06-14T03:03:12;13.80;64.90
1958;DHT22;979;51.076;13.748;2023-06-14T03:05:50;13.90;65.10
1958;DHT22;979;51.076;13.748;2023-06-14T03:08:23;13.80;65.00
1958;DHT22;979;51.076;13.748;2023-06-14T03:10:55;13.80;65.10
1958;DHT22;979;51.076;13.748;2023-06-14T03:13:25;13.90;65.20
1958;DHT22;979;51.076;13.748;2023-06-14T03:15:54;13.80;65.10
1958;DHT22;979;51.076;13.748;2023-06-14T03:18:23;13.80;65.10
1958;DHT22;979;51.076;13.748;2023-06-14T03:20:57;13.80;65.20
1958;DHT22;979;51.076;13.748;2023-06-14T03:23:27;13.70;65.20
1958;DHT22;979;51.076;13.748;2023-06-14T03:25:56;13.80;65.30
1958;DHT22;979;51.076;13.748;2023-06-14T03:28:26;13.70;65.30
1958;DHT22;979;51.076;13.748;2023-06-14T03:30:58;13.70;65.30
1958;DHT22;979;51.076;13.748;2023-06-14T03:33:31;13.70;65.40
1958;DHT22;979;51.076;13.748;2023-06-14T03:36:04;13.70;65.50
1958;DHT22;979;51.076;13.748;2023-06-14T03:38:35;13.70;65.50
1958;DHT22;979;51.076;13.748;2023-06-14T03:41:05;13.80;66.40
1958;DHT22;979;51.076;13.748;2023-06-14T03:43:33;13.80;65.60
1958;DHT22;979;51.076;13.748;2023-06-14T03:46:01;13.70;65.60
1958;DHT22;979;51.076;13.748;2023-06-14T03:48:32;13.90;66.10
1958;DHT22;979;51.076;13.748;2023-06-14T03:51:07;13.80;66.00
1958;DHT22;979;51.076;13.748;2023-06-14T03:53:37;13.80;66.30
1958;DHT22;979;51.076;13.748;2023-06-14T03:56:15;13.80;66.10
1958;DHT22;979;51.076;13.748;2023-06-14T03:58:43;13.80;66.80
1958;DHT22;979;51.076;13.748;2023-06-14T04:01:12;13.80;66.20
1958;DHT22;979;51.076;13.748;2023-06-14T04:03:42;13.80;66.20
1958;DHT22;979;51.076;13.748;2023-06-14T04:06:12;13.80;66.60
1958;DHT22;979;51.076;13.748;2023-06-14T04:08:47;13.90;66.40
1958;DHT22;979;51.076;13.748;2023-06-14T04:11:16;13.90;66.40
1958;DHT22;979;51.076;13.748;2023-06-14T04:13:44;13.90;66.50
1958;DHT22;979;51.076;13.748;2023-06-14T04:16:14;13.90;66.50
1958;DHT22;979;51.076;13.748;2023-06-14T04:18:43;14.00;66.70
1958;DHT22;979;51.076;13.748;2023-06-14T04:21:12;14.00;66.70
1958;DHT22;979;51.076;13.748;2023-06-14T04:23:41;14.00;66.70
1958;DHT22;979;51.076;13.748;2023-06-14T04:26:13;14.00;66.70
1958;DHT22;979;51.076;13.748;2023-06-14T04:28:45;14.00;66.80
1958;DHT22;979;51.076;13.748;2023-06-14T04:31:14;14.00;66.80
1958;DHT22;979;51.076;13.748;2023-06-14T04:33:43;14.40;68.00
1958;DHT22;979;51.076;13.748;2023-06-14T04:36:21;14.10;66.90
1958;DHT22;979;51.076;13.748;2023-06-14T04:38:50;14.20;66.90
1958;DHT22;979;51.076;13.748;2023-06-14T04:41:24;14.20;67.00
1958;DHT22;979;51.076;13.748;2023-06-14T04:44:00;14.30;67.00
1958;DHT22;979;51.076;13.748;2023-06-14T04:46:34;14.30;66.90
1958;DHT22;979;51.076;13.748;2023-06-14T04:49:20;14.30;67.10
1958;DHT22;979;51.076;13.748;2023-06-14T04:51:58;14.40;67.00
1958;DHT22;979;51.076;13.748;2023-06-14T04:54:30;14.50;67.00
1958;DHT22;979;51.076;13.748;2023-06-14T04:57:01;14.60;66.70
1958;DHT22;979;51.076;13.748;2023-06-14T04:59:30;14.70;66.50
1958;DHT22;979;51.076;13.748;2023-06-14T05:02:02;14.80;66.60
1958;DHT22;979;51.076;13.748;2023-06-14T05:04:32;14.90;66.70
1958;DHT22;979;51.076;13.748;2023-06-14T05:07:02;15.00;66.60
1958;DHT22;979;51.076;13.748;2023-06-14T05:09:32;15.00;66.60
1958;DHT22;979;51.076;13.748;2023-06-14T05:12:01;15.10;66.50
1958;DHT22;979;51.076;13.748;2023-06-14T05:14:36;15.20;66.60
1958;DHT22;979;51.076;13.748;2023-06-14T05:17:06;15.20;66.70
1958;DHT22;979;51.076;13.748;2023-06-14T05:19:36;15.20;66.70
1958;DHT22;979;51.076;13.748;2023-06-14T05:22:08;15.30;66.70
1958;DHT22;979;51.076;13.748;2023-06-14T05:24:36;15.30;66.50
1958;DHT22;979;51.076;13.748;2023-06-14T05:27:05;15.40;66.70
1958;DHT22;979;51.076;13.748;2023-06-14T05:29:33;15.50;66.60
1958;DHT22;979;51.076;13.748;2023-06-14T05:32:03;15.50;66.30
1958;DHT22;979;51.076;13.748;2023-06-14T05:34:34;15.50;66.30
1958;DHT22;979;51.076;13.748;2023-06-14T05:37:02;15.60;66.40
1958;DHT22;979;51.076;13.748;2023-06-14T05:39:32;15.60;66.40
1958;DHT22;979;51.076;13.748;2023-06-14T05:42:03;15.60;66.40
1958;DHT22;979;51.076;13.748;2023-06-14T05:44:33;15.70;66.50
1958;DHT22;979;51.076;13.748;2023-06-14T05:47:04;15.80;66.70
1958;DHT22;979;51.076;13.748;2023-06-14T05:49:33;15.90;66.70
1958;DHT22;979;51.076;13.748;2023-06-14T05:52:02;16.10;66.80
1958;DHT22;979;51.076;13.748;2023-06-14T05:54:32;16.30;66.70
1958;DHT22;979;51.076;13.748;2023-06-14T05:57:00;16.50;66.50
1958;DHT22;979;51.076;13.748;2023-06-14T05:59:30;16.70;66.50
1958;DHT22;979;51.076;13.748;2023-06-14T06:01:59;16.90;66.70
1958;DHT22;979;51.076;13.748;2023-06-14T06:04:27;17.00;66.10
1958;DHT22;979;51.076;13.748;2023-06-14T06:06:55;17.10;65.80
1958;DHT22;979;51.076;13.748;2023-06-14T06:09:24;17.10;65.40
1958;DHT22;979;51.076;13.748;2023-06-14T06:11:53;17.10;65.20
1958;DHT22;979;51.076;13.748;2023-06-14T06:14:22;17.10;65.10
1958;DHT22;979;51.076;13.748;2023-06-14T06:16:50;17.10;65.00
1958;DHT22;979;51.076;13.748;2023-06-14T06:19:19;17.10;65.10
1958;DHT22;979;51.076;13.748;2023-06-14T06:21:48;17.10;65.20
1958;DHT22;979;51.076;13.748;2023-06-14T06:24:16;17.20;65.30
1958;DHT22;979;51.076;13.748;2023-06-14T06:26:44;17.30;65.30
1958;DHT22;979;51.076;13.748;2023-06-14T06:29:14;17.40;65.30
1958;DHT22;979;51.076;13.748;2023-06-14T06:31:42;17.50;65.30
1958;DHT22;979;51.076;13.748;2023-06-14T06:34:12;17.60;65.00
1958;DHT22;979;51.076;13.748;2023-06-14T06:36:40;17.70;64.80
1958;DHT22;979;51.076;13.748;2023-06-14T06:39:11;17.90;64.70
1958;DHT22;979;51.076;13.748;2023-06-14T06:41:41;17.90;64.50
1958;DHT22;979;51.076;13.748;2023-06-14T06:44:09;18.00;64.50
1958;DHT22;979;51.076;13.748;2023-06-14T06:46:40;18.10;64.40
1958;DHT22;979;51.076;13.748;2023-06-14T06:49:10;18.20;64.40
1958;DHT22;979;51.076;13.748;2023-06-14T06:51:41;18.30;64.30
1958;DHT22;979;51.076;13.748;2023-06-14T06:54:10;18.40;64.20
1958;DHT22;979;51.076;13.748;2023-06-14T06:56:39;18.50;64.00
1958;DHT22;979;51.076;13.748;2023-06-14T06:59:07;18.70;63.90
1958;DHT22;979;51.076;13.748;2023-06-14T07:01:35;18.70;63.60
1958;DHT22;979;51.076;13.748;2023-06-14T07:04:05;18.80;63.40
1958;DHT22;979;51.076;13.748;2023-06-14T07:06:35;18.80;63.00
1958;DHT22;979;51.076;13.748;2023-06-14T07:09:04;18.90;63.10
1958;DHT22;979;51.076;13.748;2023-06-14T07:11:35;18.90;62.90
1958;DHT22;979;51.076;13.748;2023-06-14T07:14:03;18.90;62.80
1958;DHT22;979;51.076;13.748;2023-06-14T07:16:31;19.00;62.60
1958;DHT22;979;51.076;13.748;2023-06-14T07:18:59;19.00;62.60
1958;DHT22;979;51.076;13.748;2023-06-14T07:21:29;19.10;62.50
1958;DHT22;979;51.076;13.748;2023-06-14T07:23:58;19.30;61.90
1958;DHT22;979;51.076;13.748;2023-06-14T07:26:26;19.40;61.00
1958;DHT22;979;51.076;13.748;2023-06-14T07:28:57;19.40;59.80
1958;DHT22;979;51.076;13.748;2023-06-14T07:31:25;19.50;59.60
1958;DHT22;979;51.076;13.748;2023-06-14T07:33:54;19.60;59.40
1958;DHT22;979;51.076;13.748;2023-06-14T07:36:22;19.80;59.10
1958;DHT22;979;51.076;13.748;2023-06-14T07:38:52;19.90;58.80
1958;DHT22;979;51.076;13.748;2023-06-14T07:41:20;20.00;58.50
1958;DHT22;979;51.076;13.748;2023-06-14T07:43:49;20.10;58.00
1958;DHT22;979;51.076;13.748;2023-06-14T07:46:17;20.20;57.80
1958;DHT22;979;51.076;13.748;2023-06-14T07:48:46;20.30;57.60
1958;DHT22;979;51.076;13.748;2023-06-14T07:51:14;20.40;57.40
1958;DHT22;979;51.076;13.748;2023-06-14T07:53:45;20.60;57.20
1958;DHT22;979;51.076;13.748;2023-06-14T07:56:15;20.70;56.90
1958;DHT22;979;51.076;13.748;2023-06-14T07:58:46;20.80;56.60
1958;DHT22;979;51.076;13.748;2023-06-14T08:01:15;20.90;56.40
1958;DHT22;979;51.076;13.748;2023-06-14T08:03:45;21.00;56.40
1958;DHT22;979;51.076;13.748;2023-06-14T08:06:16;21.10;56.10
1958;DHT22;979;51.076;13.748;2023-06-14T08:08:45;21.20;56.10
1958;DHT22;979;51.076;13.748;2023-06-14T08:11:14;21.20;56.10
1958;DHT22;979;51.076;13.748;2023-06-14T08:13:43;21.40;56.10
1958;DHT22;979;51.076;13.748;2023-06-14T08:16:11;21.60;56.10
1958;DHT22;979;51.076;13.748;2023-06-14T08:18:39;21.70;55.80
1958;DHT22;979;51.076;13.748;2023-06-14T08:21:08;21.90;55.60
1958;DHT22;979;51.076;13.748;2023-06-14T08:23:36;22.00;55.10
1958;DHT22;979;51.076;13.748;2023-06-14T08:26:07;22.00;54.60
1958;DHT22;979;51.076;13.748;2023-06-14T08:28:36;22.10;54.70
1958;DHT22;979;51.076;13.748;2023-06-14T08:31:05;22.10;54.20
1958;DHT22;979;51.076;13.748;2023-06-14T08:33:33;22.10;53.90
1958;DHT22;979;51.076;13.748;2023-06-14T08:36:01;22.20;53.60
1958;DHT22;979;51.076;13.748;2023-06-14T08:38:30;22.30;53.50
1958;DHT22;979;51.076;13.748;2023-06-14T08:41:01;22.50;53.20
1958;DHT22;979;51.076;13.748;2023-06-14T08:43:33;22.60;52.60
1958;DHT22;979;51.076;13.748;2023-06-14T08:46:04;22.60;52.00
1958;DHT22;979;51.076;13.748;2023-06-14T08:48:38;22.50;51.90
1958;DHT22;979;51.076;13.748;2023-06-14T08:51:08;22.60;52.10
1958;DHT22;979;51.076;13.748;2023-06-14T08:53:43;22.50;51.80
1958;DHT22;979;51.076;13.748;2023-06-14T08:56:11;22.70;52.10
1958;DHT22;979;51.076;13.748;2023-06-14T08:58:43;22.70;51.70
1958;DHT22;979;51.076;13.748;2023-06-14T09:01:17;22.70;51.00
1958;DHT22;979;51.076;13.748;2023-06-14T09:03:46;22.70;51.40
1958;DHT22;979;51.076;13.748;2023-06-14T09:06:15;22.80;51.70
1958;DHT22;979;51.076;13.748;2023-06-14T09:08:46;22.90;51.70
1958;DHT22;979;51.076;13.748;2023-06-14T09:11:17;23.00;51.90
1958;DHT22;979;51.076;13.748;2023-06-14T09:13:50;23.10;51.80
1958;DHT22;979;51.076;13.748;2023-06-14T09:16:31;22.90;52.10
1958;DHT22;979;51.076;13.748;2023-06-14T09:19:00;23.20;52.30
1958;DHT22;979;51.076;13.748;2023-06-14T09:21:34;23.30;52.20
1958;DHT22;979;51.076;13.748;2023-06-14T09:24:06;23.50;52.80
1958;DHT22;979;51.076;13.748;2023-06-14T09:26:41;23.70;52.20
1958;DHT22;979;51.076;13.748;2023-06-14T09:29:09;23.80;51.90
1958;DHT22;979;51.076;13.748;2023-06-14T09:31:48;23.80;50.90
1958;DHT22;979;51.076;13.748;2023-06-14T09:34:16;23.80;50.70
1958;DHT22;979;51.076;13.748;2023-06-14T09:36:46;24.00;50.60
1958;DHT22;979;51.076;13.748;2023-06-14T09:39:17;24.20;50.50
1958;DHT22;979;51.076;13.748;2023-06-14T09:41:45;24.40;50.30
1958;DHT22;979;51.076;13.748;2023-06-14T09:44:14;24.70;50.30
1958;DHT22;979;51.076;13.748;2023-06-14T09:46:48;24.90;50.00
1958;DHT22;979;51.076;13.748;2023-06-14T09:49:16;25.10;49.60
1958;DHT22;979;51.076;13.748;2023-06-14T09:52:00;25.30;49.80
1958;DHT22;979;51.076;13.748;2023-06-14T09:54:55;25.60;49.80
1958;DHT22;979;51.076;13.748;2023-06-14T09:57:27;25.50;48.90
1958;DHT22;979;51.076;13.748;2023-06-14T10:00:03;25.60;49.20
1958;DHT22;979;51.076;13.748;2023-06-14T10:05:38;26.00;48.90
1958;DHT22;979;51.076;13.748;2023-06-14T10:08:14;26.10;49.10
1958;DHT22;979;51.076;13.748;2023-06-14T10:10:44;26.20;48.60
1958;DHT22;979;51.076;13.748;2023-06-14T10:13:13;26.30;48.40
1958;DHT22;979;51.076;13.748;2023-06-14T10:15:54;26.10;48.00
1958;DHT22;979;51.076;13.748;2023-06-14T10:18:32;26.00;48.00
1958;DHT22;979;51.076;13.748;2023-06-14T10:21:16;25.70;47.80
1958;DHT22;979;51.076;13.748;2023-06-14T10:23:47;25.50;47.90
1958;DHT22;979;51.076;13.748;2023-06-14T10:26:20;25.30;48.10
1958;DHT22;979;51.076;13.748;2023-06-14T10:29:08;25.00;48.10
1958;DHT22;979;51.076;13.748;2023-06-14T10:31:43;24.90;48.60
1958;DHT22;979;51.076;13.748;2023-06-14T10:34:12;24.90;49.10
1958;DHT22;979;51.076;13.748;2023-06-14T10:37:01;25.10;49.60
1958;DHT22;979;51.076;13.748;2023-06-14T10:39:31;25.30;49.40
1958;DHT22;979;51.076;13.748;2023-06-14T10:42:02;25.40;49.20
1958;DHT22;979;51.076;13.748;2023-06-14T10:44:43;25.60;49.10
1958;DHT22;979;51.076;13.748;2023-06-14T10:47:24;25.80;48.90
1958;DHT22;979;51.076;13.748;2023-06-14T10:49:54;25.90;48.70
1958;DHT22;979;51.076;13.748;2023-06-14T10:52:28;25.90;48.70
1958;DHT22;979;51.076;13.748;2023-06-14T10:55:07;26.00;48.60
1958;DHT22;979;51.076;13.748;2023-06-14T10:57:48;26.00;48.40
1958;DHT22;979;51.076;13.748;2023-06-14T11:00:22;26.10;48.50
1958;DHT22;979;51.076;13.748;2023-06-14T11:03:33;26.10;48.30
1958;DHT22;979;51.076;13.748;2023-06-14T11:06:14;26.20;48.20
1958;DHT22;979;51.076;13.748;2023-06-14T11:22:12;26.10;48.40
1958;DHT22;979;51.076;13.748;2023-06-14T11:46:28;25.90;49.30
1958;DHT22;979;51.076;13.748;2023-06-14T11:49:12;25.90;50.00
1958;DHT22;979;51.076;13.748;2023-06-14T11:54:59;25.60;49.80
1958;DHT22;979;51.076;13.748;2023-06-14T11:58:32;25.60;50.50
1958;DHT22;979;51.076;13.748;2023-06-14T12:01:06;25.60;50.20
1958;DHT22;979;51.076;13.748;2023-06-14T12:08:07;25.70;50.80
1958;DHT22;979;51.076;13.748;2023-06-14T12:10:45;25.70;51.00
1958;DHT22;979;51.076;13.748;2023-06-14T12:13:27;25.90;51.30
1958;DHT22;979;51.076;13.748;2023-06-14T12:28:13;26.30;50.20
1958;DHT22;979;51.076;13.748;2023-06-14T12:31:12;26.10;50.00
1958;DHT22;979;51.076;13.748;2023-06-14T12:33:51;26.10;50.70
1958;DHT22;979;51.076;13.748;2023-06-14T12:36:29;27.20;51.20
1958;DHT22;979;51.076;13.748;2023-06-14T12:39:30;29.00;50.90
1958;DHT22;979;51.076;13.748;2023-06-14T12:42:28;30.00;48.20
1958;DHT22;979;51.076;13.748;2023-06-14T12:45:18;31.00;47.70
1958;DHT22;979;51.076;13.748;2023-06-14T12:48:11;32.00;47.00
1958;DHT22;979;51.076;13.748;2023-06-14T12:51:13;32.50;45.80
1958;DHT22;979;51.076;13.748;2023-06-14T12:53:48;33.50;46.20
1958;DHT22;979;51.076;13.748;2023-06-14T12:56:17;33.80;44.00
1958;DHT22;979;51.076;13.748;2023-06-14T12:58:50;32.90;43.70
1958;DHT22;979;51.076;13.748;2023-06-14T13:01:19;32.00;44.30
1958;DHT22;979;51.076;13.748;2023-06-14T13:04:14;31.10;44.20
1958;DHT22;979;51.076;13.748;2023-06-14T13:06:48;30.20;44.60
1958;DHT22;979;51.076;13.748;2023-06-14T13:09:16;30.50;46.00
1958;DHT22;979;51.076;13.748;2023-06-14T13:14:41;32.50;44.30
1958;DHT22;979;51.076;13.748;2023-06-14T13:17:10;33.90;44.10
1958;DHT22;979;51.076;13.748;2023-06-14T13:23:16;34.90;42.00
1958;DHT22;979;51.076;13.748;2023-06-14T13:29:25;34.00;42.50
1958;DHT22;979;51.076;13.748;2023-06-14T13:34:36;30.80;42.80
1958;DHT22;979;51.076;13.748;2023-06-14T13:37:26;30.50;44.30
1958;DHT22;979;51.076;13.748;2023-06-14T13:40:02;31.80;44.40
1958;DHT22;979;51.076;13.748;2023-06-14T13:43:03;33.00;44.20
1958;DHT22;979;51.076;13.748;2023-06-14T13:46:03;34.20;42.40
1958;DHT22;979;51.076;13.748;2023-06-14T13:48:45;35.50;42.50
1958;DHT22;979;51.076;13.748;2023-06-14T13:51:20;36.50;42.20
1958;DHT22;979;51.076;13.748;2023-06-14T13:53:49;37.50;40.80
1958;DHT22;979;51.076;13.748;2023-06-14T13:56:28;38.00;40.40
1958;DHT22;979;51.076;13.748;2023-06-14T13:58:57;37.80;39.70
1958;DHT22;979;51.076;13.748;2023-06-14T14:01:26;37.00;40.00
1958;DHT22;979;51.076;13.748;2023-06-14T14:03:56;36.00;39.20
1958;DHT22;979;51.076;13.748;2023-06-14T14:06:29;35.00;39.20
1958;DHT22;979;51.076;13.748;2023-06-14T14:09:13;34.30;40.30
1958;DHT22;979;51.076;13.748;2023-06-14T14:11:49;34.60;40.50
1958;DHT22;979;51.076;13.748;2023-06-14T14:14:34;35.20;41.00
1958;DHT22;979;51.076;13.748;2023-06-14T14:17:12;36.10;40.70
1958;DHT22;979;51.076;13.748;2023-06-14T14:20:11;36.60;40.20
1958;DHT22;979;51.076;13.748;2023-06-14T14:23:29;37.10;39.60
1958;DHT22;979;51.076;13.748;2023-06-14T14:27:13;37.80;39.10
1958;DHT22;979;51.076;13.748;2023-06-14T14:30:05;37.30;37.50
1958;DHT22;979;51.076;13.748;2023-06-14T14:33:02;36.10;38.10
1958;DHT22;979;51.076;13.748;2023-06-14T14:38:50;33.50;39.80
1958;DHT22;979;51.076;13.748;2023-06-14T14:41:22;32.50;40.10
1958;DHT22;979;51.076;13.748;2023-06-14T14:43:51;32.10;41.00
1958;DHT22;979;51.076;13.748;2023-06-14T14:46:19;32.50;41.80
1958;DHT22;979;51.076;13.748;2023-06-14T14:48:48;33.30;41.70
1958;DHT22;979;51.076;13.748;2023-06-14T14:51:32;34.20;40.70
1958;DHT22;979;51.076;13.748;2023-06-14T14:54:02;34.10;39.70
1958;DHT22;979;51.076;13.748;2023-06-14T14:56:33;33.70;39.20
1958;DHT22;979;51.076;13.748;2023-06-14T14:59:07;33.20;39.40
1958;DHT22;979;51.076;13.748;2023-06-14T15:01:36;33.10;39.90
1958;DHT22;979;51.076;13.748;2023-06-14T15:04:07;33.50;40.30
1958;DHT22;979;51.076;13.748;2023-06-14T15:06:35;34.30;39.70
1958;DHT22;979;51.076;13.748;2023-06-14T15:09:07;35.20;39.00
1958;DHT22;979;51.076;13.748;2023-06-14T15:11:35;36.20;38.30
1958;DHT22;979;51.076;13.748;2023-06-14T15:14:05;37.10;38.10
1958;DHT22;979;51.076;13.748;2023-06-14T15:16:33;37.80;37.80
1958;DHT22;979;51.076;13.748;2023-06-14T15:22:58;38.40;35.90
1958;DHT22;979;51.076;13.748;2023-06-14T15:25:32;37.60;35.10
1958;DHT22;979;51.076;13.748;2023-06-14T15:28:00;36.50;34.90
1958;DHT22;979;51.076;13.748;2023-06-14T15:30:36;35.30;35.80
1958;DHT22;979;51.076;13.748;2023-06-14T15:33:05;34.10;36.50
1958;DHT22;979;51.076;13.748;2023-06-14T15:39:28;31.80;37.70
1958;DHT22;979;51.076;13.748;2023-06-14T15:42:07;31.50;39.20
1958;DHT22;979;51.076;13.748;2023-06-14T15:44:39;31.70;39.60
1958;DHT22;979;51.076;13.748;2023-06-14T15:47:09;31.60;39.50
1958;DHT22;979;51.076;13.748;2023-06-14T15:49:47;31.20;39.50
1958;DHT22;979;51.076;13.748;2023-06-14T15:52:15;30.70;40.00
1958;DHT22;979;51.076;13.748;2023-06-14T15:55:15;30.70;40.40
1958;DHT22;979;51.076;13.748;2023-06-14T15:57:50;31.30;40.10
1958;DHT22;979;51.076;13.748;2023-06-14T16:00:52;32.00;40.00
1958;DHT22;979;51.076;13.748;2023-06-14T16:03:24;32.90;39.70
1958;DHT22;979;51.076;13.748;2023-06-14T16:06:08;33.50;39.70
1958;DHT22;979;51.076;13.748;2023-06-14T16:08:51;33.90;38.00
1958;DHT22;979;51.076;13.748;2023-06-14T16:11:24;34.60;37.60
1958;DHT22;979;51.076;13.748;2023-06-14T16:14:09;34.70;37.80
1958;DHT22;979;51.076;13.748;2023-06-14T16:17:07;34.70;37.10
1958;DHT22;979;51.076;13.748;2023-06-14T16:20:01;35.30;37.80
1958;DHT22;979;51.076;13.748;2023-06-14T16:26:45;35.30;35.80
1958;DHT22;979;51.076;13.748;2023-06-14T16:29:51;35.20;36.50
1958;DHT22;979;51.076;13.748;2023-06-14T16:32:56;35.30;35.80
1958;DHT22;979;51.076;13.748;2023-06-14T16:35:50;35.20;36.00
1958;DHT22;979;51.076;13.748;2023-06-14T16:38:50;35.10;36.00
1958;DHT22;979;51.076;13.748;2023-06-14T16:41:32;35.10;36.20
1958;DHT22;979;51.076;13.748;2023-06-14T16:44:20;35.20;36.10
1958;DHT22;979;51.076;13.748;2023-06-14T16:47:12;35.10;36.20
1958;DHT22;979;51.076;13.748;2023-06-14T16:49:47;35.10;36.00
1958;DHT22;979;51.076;13.748;2023-06-14T16:52:25;35.00;36.40
1958;DHT22;979;51.076;13.748;2023-06-14T16:54:54;34.70;35.90
1958;DHT22;979;51.076;13.748;2023-06-14T16:57:24;34.60;36.10
1958;DHT22;979;51.076;13.748;2023-06-14T16:59:53;34.50;36.10
1958;DHT22;979;51.076;13.748;2023-06-14T17:02:52;34.70;36.20
1958;DHT22;979;51.076;13.748;2023-06-14T17:05:21;34.60;36.40
1958;DHT22;979;51.076;13.748;2023-06-14T17:08:06;34.70;36.40
1958;DHT22;979;51.076;13.748;2023-06-14T17:10:40;34.60;36.10
1958;DHT22;979;51.076;13.748;2023-06-14T17:13:10;34.20;36.00
1958;DHT22;979;51.076;13.748;2023-06-14T17:15:59;34.10;36.50
1958;DHT22;979;51.076;13.748;2023-06-14T17:19:00;33.80;35.80
1958;DHT22;979;51.076;13.748;2023-06-14T17:43:21;30.70;37.40
1958;DHT22;979;51.076;13.748;2023-06-14T17:46:30;29.60;38.30
1958;DHT22;979;51.076;13.748;2023-06-14T18:38:28;24.40;46.10
1958;DHT22;979;51.076;13.748;2023-06-14T18:41:35;24.20;46.30
1958;DHT22;979;51.076;13.748;2023-06-14T19:06:29;23.30;48.30
1958;DHT22;979;51.076;13.748;2023-06-14T19:09:21;23.00;48.80
1958;DHT22;979;51.076;13.748;2023-06-14T19:11:58;23.20;49.20
1958;DHT22;979;51.076;13.748;2023-06-14T19:15:25;23.00;49.80
1958;DHT22;979;51.076;13.748;2023-06-14T19:25:56;22.50;49.50
1958;DHT22;979;51.076;13.748;2023-06-14T19:28:55;22.50;50.10
1958;DHT22;979;51.076;13.748;2023-06-14T19:32:32;22.40;50.50
1958;DHT22;979;51.076;13.748;2023-06-14T19:35:07;22.20;50.10
1958;DHT22;979;51.076;13.748;2023-06-14T19:37:46;22.20;50.40
1958;DHT22;979;51.076;13.748;2023-06-14T19:40:14;22.00;51.10
1958;DHT22;979;51.076;13.748;2023-06-14T19:42:50;22.00;51.20
1958;DHT22;979;51.076;13.748;2023-06-14T19:45:55;21.90;51.60
1958;DHT22;979;51.076;13.748;2023-06-14T19:56:50;21.70;52.20
1958;DHT22;979;51.076;13.748;2023-06-14T19:59:30;21.60;52.50
1958;DHT22;979;51.076;13.748;2023-06-14T20:02:01;21.50;52.40
1958;DHT22;979;51.076;13.748;2023-06-14T20:04:36;21.50;52.20